createdAt,value
2023-07-03T00:01:23.120Z,23.13
2023-07-03T00:06:26.777Z,22.40
2023-07-03T00:11:31.680Z,24.48
2023-07-03T00:16:35.235Z,20.17
2023-07-03T00:21:44.375Z,17.98
2023-07-03T00:26:49.237Z,17.67
2023-07-03T00:31:53.118Z,21.02
2023-07-03T00:36:57.096Z,21.27
2023-07-03T00:42:01.996Z,19.02
2023-07-03T00:47:05.747Z,21.73
2023-07-03T00:52:12.272Z,19.55
2023-07-03T00:57:18.446Z,21.48
2023-07-03T01:02:28.009Z,28.45
2023-07-03T01:07:34.996Z,15.82
2023-07-03T01:12:43.792Z,18.08
2023-07-03T01:17:51.847Z,19.67
2023-07-03T01:23:04.943Z,31.25
2023-07-03T01:28:14.724Z,25.38
2023-07-03T01:33:22.813Z,19.20
2023-07-03T01:38:28.109Z,26.90
2023-07-03T01:43:33.080Z,21.10
2023-07-03T01:48:37.406Z,28.30
2023-07-03T01:53:48.080Z,24.42
2023-07-03T01:58:56.883Z,22.20
2023-07-03T02:04:06.401Z,19.55
2023-07-03T02:09:11.149Z,18.30
2023-07-03T02:14:21.096Z,29.25
2023-07-03T02:19:30.230Z,21.33
2023-07-03T02:24:33.869Z,25.00
2023-07-03T02:29:38.769Z,21.67
2023-07-03T02:34:43.822Z,22.23
2023-07-03T02:39:47.337Z,19.15
2023-07-03T02:44:52.541Z,30.15
2023-07-03T02:49:56.427Z,27.15
2023-07-03T02:55:01.662Z,21.08
2023-07-03T03:00:08.452Z,28.38
2023-07-03T03:05:14.526Z,25.13
2023-07-03T03:10:19.392Z,24.77
2023-07-03T03:15:24.542Z,24.17
2023-07-03T03:20:28.414Z,27.25
2023-07-03T03:25:32.070Z,28.48
2023-07-03T03:30:37.234Z,37.53
2023-07-03T03:35:40.856Z,28.80
2023-07-03T03:40:54.416Z,38.25
2023-07-03T03:46:02.429Z,37.47
2023-07-03T03:51:07.326Z,29.48
2023-07-03T03:56:12.368Z,35.53
2023-07-03T04:01:18.960Z,38.67
2023-07-03T04:06:22.908Z,33.90
2023-07-03T04:11:26.612Z,31.20
2023-07-03T04:16:34.148Z,30.15
2023-07-03T04:21:40.196Z,32.60
2023-07-03T04:26:43.759Z,30.02
2023-07-03T04:31:48.714Z,36.85
2023-07-03T04:36:52.488Z,33.45
2023-07-03T04:41:57.343Z,27.25
2023-07-03T04:47:06.015Z,28.38
2023-07-03T04:52:10.368Z,34.65
2023-07-03T04:57:13.953Z,32.08
2023-07-03T05:02:19.319Z,28.52
2023-07-03T05:07:24.595Z,33.95
2023-07-03T05:12:28.350Z,34.28
2023-07-03T05:17:36.120Z,33.05
2023-07-03T05:22:40.489Z,29.95
2023-07-03T05:27:44.362Z,37.03
2023-07-03T05:32:49.413Z,34.83
2023-07-03T05:37:53.020Z,34.88
2023-07-03T05:42:56.604Z,34.03
2023-07-03T05:48:01.884Z,40.33
2023-07-03T05:53:05.444Z,35.28
2023-07-03T05:58:09.138Z,38.25
2023-07-03T06:03:14.153Z,37.22
2023-07-03T06:08:17.767Z,34.22
2023-07-03T06:13:21.274Z,35.58
2023-07-03T06:18:26.461Z,29.85
2023-07-03T06:23:30.014Z,26.35
2023-07-03T06:28:33.506Z,31.08
2023-07-03T06:33:38.552Z,37.10
2023-07-03T06:38:42.194Z,37.28
2023-07-03T06:43:45.744Z,37.10
2023-07-03T06:48:51.268Z,34.25
2023-07-03T06:53:55.182Z,32.53
2023-07-03T06:58:58.719Z,31.23
2023-07-03T07:04:03.699Z,29.02
2023-07-03T07:09:07.225Z,25.95
2023-07-03T07:14:10.784Z,33.53
2023-07-03T07:19:15.703Z,31.75
2023-07-03T07:24:21.402Z,28.23
2023-07-03T07:29:26.275Z,25.55
2023-07-03T07:34:31.269Z,35.00
2023-07-03T07:39:34.830Z,23.15
2023-07-03T07:44:38.342Z,27.77
2023-07-03T07:49:44.547Z,27.15
2023-07-03T07:54:49.240Z,31.00
2023-07-03T07:59:53.392Z,20.77
2023-07-03T08:04:58.676Z,26.25
2023-07-03T08:10:02.382Z,29.75
2023-07-03T08:15:07.155Z,18.98
2023-07-03T08:20:13.328Z,19.65
2023-07-03T08:25:17.216Z,25.90
2023-07-03T08:30:23.207Z,27.95
2023-07-03T08:40:34.614Z,21.83
2023-07-03T08:45:42.201Z,18.73
2023-07-03T08:50:51.124Z,18.30
2023-07-03T08:55:58.822Z,16.10
2023-07-03T09:01:10.064Z,17.73
2023-07-03T09:06:20.947Z,19.27
2023-07-03T09:11:27.245Z,19.27
2023-07-03T09:16:31.104Z,22.17
2023-07-03T09:21:38.465Z,16.08
2023-07-03T09:26:48.685Z,17.95
2023-07-03T09:31:54.200Z,24.60
2023-07-03T09:37:02.868Z,18.00
2023-07-03T09:42:09.137Z,20.15
2023-07-03T09:47:23.060Z,20.10
2023-07-03T09:52:28.328Z,25.08
2023-07-03T09:57:31.880Z,17.45
2023-07-03T10:07:46.051Z,15.65
2023-07-03T10:12:58.717Z,28.35
2023-07-03T10:18:05.824Z,15.20
2023-07-03T10:23:14.055Z,16.52
2023-07-03T10:28:24.091Z,11.88
2023-07-03T10:33:33.666Z,16.77
2023-07-03T10:38:45.668Z,15.65
2023-07-03T10:43:54.864Z,11.77
2023-07-03T10:49:04.864Z,15.20
2023-07-03T10:54:17.285Z,11.73
2023-07-03T10:59:24.690Z,14.65
2023-07-03T11:04:38.092Z,15.35
2023-07-03T11:09:47.265Z,14.15
2023-07-03T11:15:04.780Z,17.52
2023-07-03T11:20:14.194Z,16.23
2023-07-03T11:25:23.972Z,16.33
2023-07-03T11:30:28.228Z,14.30
2023-07-03T11:41:01.577Z,15.20
2023-07-03T11:46:12.010Z,16.55
2023-07-03T11:51:17.365Z,18.70
2023-07-03T11:56:51.073Z,12.88
2023-07-03T12:02:15.983Z,17.05
2023-07-03T12:07:48.896Z,17.85
2023-07-03T12:13:25.393Z,13.20
2023-07-03T12:18:30.644Z,17.02
2023-07-03T12:23:36.635Z,11.38
2023-07-03T12:28:42.299Z,14.48
2023-07-03T12:33:55.892Z,16.83
2023-07-03T12:39:00.924Z,22.50
2023-07-03T12:44:08.729Z,10.18
2023-07-03T12:49:18.070Z,11.38
2023-07-03T12:54:23.147Z,15.57
2023-07-03T12:59:28.299Z,9.55
2023-07-03T13:04:35.544Z,10.80
2023-07-03T13:09:44.701Z,9.48
2023-07-03T13:15:08.552Z,9.40
2023-07-03T13:20:19.790Z,10.82
2023-07-03T13:25:26.216Z,10.00
2023-07-03T13:30:35.713Z,10.70
2023-07-03T13:35:44.010Z,9.40
2023-07-03T13:40:48.732Z,7.57
2023-07-03T13:45:54.121Z,15.45
2023-07-03T13:50:59.155Z,11.98
2023-07-03T13:56:02.669Z,9.25
2023-07-03T14:01:20.819Z,7.05
2023-07-03T14:06:30.405Z,6.00
2023-07-03T14:11:33.942Z,5.82
2023-07-03T14:16:37.428Z,8.50
2023-07-03T14:21:42.324Z,11.82
2023-07-03T14:26:45.964Z,11.18
2023-07-03T14:31:50.510Z,7.05
2023-07-03T14:36:55.759Z,8.27
2023-07-03T14:42:00.053Z,6.78
2023-07-03T14:47:04.211Z,9.13
2023-07-03T14:52:09.442Z,10.73
2023-07-03T14:57:13.286Z,7.38
2023-07-03T15:02:16.808Z,8.00
2023-07-03T15:07:21.730Z,10.77
2023-07-03T15:12:26.110Z,10.05
2023-07-03T15:17:29.729Z,8.27
2023-07-03T15:22:34.714Z,14.27
2023-07-03T15:27:38.235Z,12.38
2023-07-03T15:32:41.826Z,8.80
2023-07-03T15:37:46.896Z,9.60
2023-07-03T15:42:50.554Z,10.25
2023-07-03T15:47:54.403Z,8.75
2023-07-03T15:52:59.379Z,10.73
2023-07-03T15:58:03.047Z,11.30
2023-07-03T16:03:06.805Z,12.65
2023-07-03T16:08:11.683Z,7.88
2023-07-03T16:13:15.332Z,11.20
2023-07-03T16:18:18.864Z,9.52
2023-07-03T16:23:23.893Z,10.73
2023-07-03T16:28:27.611Z,16.10
2023-07-03T16:33:32.611Z,9.73
2023-07-03T16:38:37.683Z,13.82
2023-07-03T16:43:43.205Z,9.02
2023-07-03T16:48:48.017Z,12.90
2023-07-03T16:53:53.066Z,9.82
2023-07-03T16:58:59.342Z,14.73
2023-07-03T17:04:03.330Z,11.50
2023-07-03T17:09:08.297Z,11.63
2023-07-03T17:14:11.916Z,9.27
2023-07-03T17:19:15.478Z,9.57
2023-07-03T17:24:20.379Z,9.25
2023-07-03T17:29:23.917Z,12.07
2023-07-03T17:34:27.974Z,11.07
2023-07-03T17:39:33.045Z,13.15
2023-07-03T17:44:36.597Z,10.98
2023-07-03T17:49:40.144Z,15.48
2023-07-03T17:54:45.396Z,11.48
2023-07-03T17:59:48.909Z,10.50
2023-07-03T18:04:53.227Z,18.38
2023-07-03T18:09:58.281Z,11.77
2023-07-03T18:15:01.811Z,11.43
2023-07-03T18:20:05.854Z,12.48
2023-07-03T18:25:11.210Z,14.45
2023-07-03T18:30:14.943Z,12.85
2023-07-03T18:35:18.550Z,10.13
2023-07-03T18:40:23.520Z,9.05
2023-07-03T18:45:27.037Z,12.60
2023-07-03T18:50:30.940Z,11.55
2023-07-03T18:55:35.990Z,14.35
2023-07-03T19:00:39.554Z,11.15
2023-07-03T19:05:50.664Z,10.88
2023-07-03T19:10:56.143Z,17.67
2023-07-03T19:15:59.720Z,12.38
2023-07-03T19:21:03.470Z,12.63
2023-07-03T19:26:10.297Z,16.45
2023-07-03T19:31:14.025Z,13.23
2023-07-03T19:36:21.334Z,12.50
2023-07-03T19:41:26.389Z,15.50
2023-07-03T19:46:30.442Z,15.77
2023-07-03T19:51:33.956Z,16.05
2023-07-03T19:56:39.721Z,16.27
2023-07-03T20:01:43.855Z,13.25
2023-07-03T20:06:47.374Z,13.48
2023-07-03T20:11:52.366Z,15.73
2023-07-03T20:16:56.000Z,14.98
2023-07-03T20:21:59.559Z,14.75
2023-07-03T20:27:05.417Z,16.48
2023-07-03T20:32:09.506Z,15.90
2023-07-03T20:37:14.464Z,12.55
2023-07-03T20:42:19.332Z,13.65
2023-07-03T20:47:22.955Z,11.27
2023-07-03T20:52:28.303Z,8.07
2023-07-03T20:57:34.513Z,10.43
2023-07-03T21:02:40.754Z,10.57
2023-07-03T21:07:44.324Z,9.90
2023-07-03T21:12:49.254Z,9.95
2023-07-03T21:18:00.032Z,11.50
2023-07-03T21:23:03.661Z,7.88
2023-07-03T21:28:08.605Z,14.95
2023-07-03T21:33:12.479Z,12.35
2023-07-03T21:38:16.004Z,11.85
2023-07-03T21:43:21.109Z,12.70
2023-07-03T21:48:24.726Z,19.52
2023-07-03T21:53:28.759Z,11.65
2023-07-03T21:58:33.889Z,11.88
2023-07-03T22:03:37.502Z,8.20
2023-07-03T22:08:41.037Z,8.68
2023-07-03T22:13:46.062Z,10.27
2023-07-03T22:18:50.242Z,5.57
2023-07-03T22:23:53.952Z,6.88
2023-07-03T22:28:58.969Z,6.22
2023-07-03T22:34:02.693Z,6.22
2023-07-03T22:39:06.208Z,3.63
2023-07-03T22:44:11.179Z,8.57
2023-07-03T22:49:24.546Z,4.18
2023-07-03T22:54:29.313Z,7.10
2023-07-03T22:59:34.254Z,4.80
2023-07-03T23:04:37.773Z,10.05
2023-07-03T23:09:43.990Z,6.95
2023-07-03T23:14:51.235Z,6.40
2023-07-03T23:19:55.048Z,8.65
2023-07-03T23:24:59.834Z,11.40
2023-07-03T23:30:06.357Z,11.88
2023-07-03T23:35:12.140Z,11.07
2023-07-03T23:40:16.057Z,12.68
2023-07-03T23:45:21.160Z,9.80
2023-07-03T23:50:24.643Z,12.57
2023-07-03T23:55:28.121Z,8.70
